Time;durP1;ratioP1;P1;durP2;ratioP2;P2;SDS_P1;SDS_P2;PMS_P1;PMS_P2;Temp;Humidity;BMP_temperature;BMP_pressure;BME280_temperature;BME280_humidity;BME280_pressure;Samples;Min_cycle;Max_cycle;Signal;HPM_P1;HPM_P2
2022/06/01 00:02:01;;;;;;;4.82;3.60;;;;;;;;;;5045281;28;20037;-56
2022/06/01 00:04:28;;;;;;;6.57;4.05;;;;;;;;;;5038255;28;20033;-55
2022/06/01 00:06:54;;;;;;;4.47;3.47;;;;;;;;;;5050622;28;20044;-56
2022/06/01 00:09:20;;;;;;;4.93;3.63;;;;;;;;;;5046611;28;20029;-56
2022/06/01 00:11:46;;;;;;;5.90;4.00;;;;;;;;;;5027318;28;20029;-56
2022/06/01 00:14:13;;;;;;;5.32;3.40;;;;;;;;;;5033936;28;20026;-55
2022/06/01 00:16:39;;;;;;;5.63;3.90;;;;;;;;;;5046505;28;20052;-56
2022/06/01 00:19:07;;;;;;;4.03;3.28;;;;;;;;;;5052655;28;20020;-55
2022/06/01 00:21:34;;;;;;;5.32;4.07;;;;;;;;;;5045362;28;20419;-56
2022/06/01 00:23:59;;;;;;;6.50;3.80;;;;;;;;;;5041451;28;20399;-56
2022/06/01 00:26:25;;;;;;;5.03;3.63;;;;;;;;;;5042808;28;20025;-55
2022/06/01 00:28:51;;;;;;;4.25;3.50;;;;;;;;;;5044397;28;20480;-56
2022/06/01 00:31:17;;;;;;;6.15;3.65;;;;;;;;;;5051573;28;20033;-53
2022/06/01 00:33:43;;;;;;;4.72;3.80;;;;;;;;;;5050418;28;20025;-56
2022/06/01 00:36:10;;;;;;;6.30;3.92;;;;;;;;;;5049513;28;20029;-56
2022/06/01 00:38:36;;;;;;;4.63;3.55;;;;;;;;;;5042433;28;20025;-56
2022/06/01 00:41:02;;;;;;;6.57;4.40;;;;;;;;;;5042923;28;20037;-56
2022/06/01 00:43:44;;;;;;;4.85;3.72;;;;;;;;;;5047340;28;20456;-55
2022/06/01 00:46:10;;;;;;;6.40;4.13;;;;;;;;;;5045372;28;20125;-55
2022/06/01 00:48:39;;;;;;;4.57;3.70;;;;;;;;;;5047697;28;20036;-56
2022/06/01 00:51:05;;;;;;;5.85;4.00;;;;;;;;;;5046059;28;20474;-56
2022/06/01 00:53:34;;;;;;;6.70;3.92;;;;;;;;;;5040098;28;20159;-55
2022/06/01 00:56:02;;;;;;;5.60;4.55;;;;;;;;;;5044960;28;20075;-56
2022/06/01 00:58:31;;;;;;;6.03;3.92;;;;;;;;;;5050831;28;20369;-56
2022/06/01 01:00:57;;;;;;;5.75;3.80;;;;;;;;;;5045219;28;20028;-56
2022/06/01 01:03:25;;;;;;;5.40;4.00;;;;;;;;;;5046833;28;20032;-55
2022/06/01 01:06:10;;;;;;;4.63;3.72;;;;;;;;;;5043350;28;20119;-55
2022/06/01 01:08:35;;;;;;;4.82;3.90;;;;;;;;;;5045282;28;20083;-55
2022/06/01 01:11:01;;;;;;;4.82;4.30;;;;;;;;;;5045626;28;20394;-55
2022/06/01 01:13:28;;;;;;;5.20;3.72;;;;;;;;;;5048153;28;20025;-56
2022/06/01 01:15:58;;;;;;;6.93;4.38;;;;;;;;;;5033528;28;20049;-58
2022/06/01 01:18:31;;;;;;;5.38;3.58;;;;;;;;;;5042468;28;20400;-56
2022/06/01 01:21:01;;;;;;;5.78;3.65;;;;;;;;;;5050901;28;20108;-54
2022/06/01 01:23:46;;;;;;;6.88;4.50;;;;;;;;;;5046069;28;20040;-56
2022/06/01 01:26:14;;;;;;;5.22;4.15;;;;;;;;;;5048191;28;20104;-56
2022/06/01 01:28:40;;;;;;;5.53;4.18;;;;;;;;;;5044352;28;20025;-56
2022/06/01 01:31:19;;;;;;;5.97;4.22;;;;;;;;;;5050715;28;20035;-56
2022/06/01 01:33:46;;;;;;;5.63;3.95;;;;;;;;;;5046149;28;20029;-56
2022/06/01 01:36:14;;;;;;;5.57;4.13;;;;;;;;;;5042996;28;20063;-55
2022/06/01 01:38:43;;;;;;;5.88;4.13;;;;;;;;;;5040240;28;20028;-56
2022/06/01 01:41:19;;;;;;;5.45;4.32;;;;;;;;;;5037680;28;20104;-56
2022/06/01 01:43:48;;;;;;;5.72;4.13;;;;;;;;;;5042388;28;20033;-56
2022/06/01 01:46:14;;;;;;;6.65;4.20;;;;;;;;;;5043544;28;20028;-56
2022/06/01 01:48:40;;;;;;;5.63;4.07;;;;;;;;;;5048775;28;20464;-56
2022/06/01 01:51:06;;;;;;;4.13;3.55;;;;;;;;;;5048469;28;20032;-56
2022/06/01 01:53:33;;;;;;;5.28;4.07;;;;;;;;;;5040569;28;20033;-56
2022/06/01 01:56:13;;;;;;;6.00;4.05;;;;;;;;;;5043177;28;20373;-56
2022/06/01 01:58:39;;;;;;;6.75;4.60;;;;;;;;;;5046555;28;20055;-56
2022/06/01 02:01:13;;;;;;;6.63;4.78;;;;;;;;;;5040872;28;20021;-56
2022/06/01 02:03:47;;;;;;;5.80;4.20;;;;;;;;;;5037380;28;20032;-56
2022/06/01 02:06:17;;;;;;;6.82;5.15;;;;;;;;;;5045555;28;20029;-56
2022/06/01 02:08:48;;;;;;;6.20;4.30;;;;;;;;;;5049458;28;20072;-56
2022/06/01 02:14:34;;;;;;;6.25;4.10;;;;;;;;;;5049644;28;20032;-56
2022/06/01 02:17:06;;;;;;;6.20;4.25;;;;;;;;;;5044563;28;20033;-56
2022/06/01 02:19:34;;;;;;;6.47;4.28;;;;;;;;;;5044355;28;20036;-56
2022/06/01 02:22:01;;;;;;;5.13;3.85;;;;;;;;;;5045602;28;20021;-56
2022/06/01 02:24:27;;;;;;;5.18;4.07;;;;;;;;;;5050622;28;20133;-56
2022/06/01 02:26:55;;;;;;;6.65;4.25;;;;;;;;;;5047314;28;20139;-56
2022/06/01 02:29:26;;;;;;;4.82;3.85;;;;;;;;;;5049679;28;20033;-56
2022/06/01 02:31:52;;;;;;;5.05;4.10;;;;;;;;;;5042826;28;20035;-56
2022/06/01 02:34:19;;;;;;;6.68;3.72;;;;;;;;;;5044242;28;20036;-56
2022/06/01 02:36:45;;;;;;;5.93;4.25;;;;;;;;;;5051865;28;20025;-56
2022/06/01 02:39:12;;;;;;;6.28;4.05;;;;;;;;;;5041793;28;20389;-56
2022/06/01 02:44:23;;;;;;;6.32;4.88;;;;;;;;;;5042504;28;20052;-54
2022/06/01 02:46:50;;;;;;;5.53;3.78;;;;;;;;;;5048663;28;20675;-55
2022/06/01 02:49:17;;;;;;;5.18;3.92;;;;;;;;;;5048626;28;20025;-56
2022/06/01 02:51:43;;;;;;;4.25;3.72;;;;;;;;;;5040279;28;20037;-56
2022/06/01 02:54:09;;;;;;;5.28;4.00;;;;;;;;;;5046853;28;20020;-56
2022/06/01 02:56:35;;;;;;;6.72;4.03;;;;;;;;;;5042576;28;20397;-56
2022/06/01 02:59:01;;;;;;;6.38;3.83;;;;;;;;;;5053915;28;20100;-56
2022/06/01 03:01:27;;;;;;;4.20;3.60;;;;;;;;;;5052154;28;20025;-56
2022/06/01 03:03:53;;;;;;;4.95;3.75;;;;;;;;;;5042533;28;20025;-56
2022/06/01 03:06:19;;;;;;;5.95;4.03;;;;;;;;;;5045207;28;20021;-56
2022/06/01 03:08:45;;;;;;;7.00;3.97;;;;;;;;;;5053168;28;20057;-56
2022/06/01 03:11:12;;;;;;;4.70;4.05;;;;;;;;;;5053389;28;20392;-56
2022/06/01 03:13:38;;;;;;;5.13;3.63;;;;;;;;;;5047468;28;20033;-56
2022/06/01 03:16:04;;;;;;;4.65;3.65;;;;;;;;;;5053677;28;20235;-55
2022/06/01 03:18:33;;;;;;;4.75;3.70;;;;;;;;;;5045509;28;20025;-56
2022/06/01 03:21:00;;;;;;;5.72;4.10;;;;;;;;;;5049933;28;20029;-56
2022/06/01 03:23:26;;;;;;;5.28;4.03;;;;;;;;;;5048194;28;20481;-56
2022/06/01 03:25:52;;;;;;;5.88;4.00;;;;;;;;;;5049222;28;20088;-56
2022/06/01 03:28:18;;;;;;;5.82;3.95;;;;;;;;;;5052715;28;20496;-56
2022/06/01 03:30:45;;;;;;;6.18;4.45;;;;;;;;;;5043353;28;20100;-55
2022/06/01 03:33:13;;;;;;;5.07;3.97;;;;;;;;;;5035650;28;20244;-56
2022/06/01 03:35:39;;;;;;;6.38;4.00;;;;;;;;;;5047419;28;20032;-56
2022/06/01 03:38:06;;;;;;;4.53;3.72;;;;;;;;;;5047564;28;20147;-54
2022/06/01 03:40:33;;;;;;;7.15;4.40;;;;;;;;;;5036822;28;20571;-55
2022/06/01 03:42:59;;;;;;;4.43;3.38;;;;;;;;;;5036341;28;20111;-56
2022/06/01 03:48:10;;;;;;;5.22;3.97;;;;;;;;;;5052932;28;20542;-55
2022/06/01 03:50:37;;;;;;;4.72;3.85;;;;;;;;;;5032426;28;20026;-56
2022/06/01 03:53:03;;;;;;;8.63;3.83;;;;;;;;;;5052881;28;20043;-55
2022/06/01 03:55:29;;;;;;;4.82;3.65;;;;;;;;;;5051267;28;20104;-55
2022/06/01 03:57:56;;;;;;;6.10;4.55;;;;;;;;;;5052721;28;20106;-56
2022/06/01 04:00:23;;;;;;;5.28;3.97;;;;;;;;;;5041819;28;20491;-56
2022/06/01 04:02:49;;;;;;;7.72;4.13;;;;;;;;;;5035552;28;20423;-56
2022/06/01 04:05:15;;;;;;;5.57;3.47;;;;;;;;;;5047484;28;20111;-56
2022/06/01 04:07:41;;;;;;;5.60;4.03;;;;;;;;;;5048569;28;20098;-56
2022/06/01 04:10:08;;;;;;;5.20;3.45;;;;;;;;;;5043777;28;20540;-56
2022/06/01 04:12:34;;;;;;;5.38;3.85;;;;;;;;;;5042032;28;20025;-55
2022/06/01 04:15:00;;;;;;;5.68;3.90;;;;;;;;;;5044726;28;20503;-58
2022/06/01 04:17:26;;;;;;;7.93;3.90;;;;;;;;;;5043954;28;20033;-56
2022/06/01 04:19:52;;;;;;;5.60;4.10;;;;;;;;;;5051304;28;20037;-56
2022/06/01 04:22:19;;;;;;;5.25;3.75;;;;;;;;;;5034645;28;20112;-56
2022/06/01 04:24:45;;;;;;;5.38;4.22;;;;;;;;;;5047342;28;20033;-55
2022/06/01 04:27:11;;;;;;;4.35;3.65;;;;;;;;;;5028149;28;20026;-55
2022/06/01 04:29:37;;;;;;;4.55;3.67;;;;;;;;;;5047871;28;20037;-55
2022/06/01 04:32:09;;;;;;;4.65;3.30;;;;;;;;;;5046392;28;20060;-54
2022/06/01 04:34:35;;;;;;;4.78;3.50;;;;;;;;;;5044714;28;20030;-55
2022/06/01 04:37:01;;;;;;;3.95;3.25;;;;;;;;;;5046950;28;20033;-55
2022/06/01 04:39:27;;;;;;;6.20;4.35;;;;;;;;;;5047609;28;20531;-56
2022/06/01 04:41:53;;;;;;;4.65;3.10;;;;;;;;;;5045704;28;20481;-55
2022/06/01 04:44:19;;;;;;;4.82;3.63;;;;;;;;;;5046775;28;20032;-56
2022/06/01 04:46:45;;;;;;;5.82;3.63;;;;;;;;;;5033584;28;20064;-55
2022/06/01 04:49:11;;;;;;;4.68;3.70;;;;;;;;;;5045191;28;20436;-56
2022/06/01 04:51:37;;;;;;;4.70;3.78;;;;;;;;;;5041753;28;20492;-56
2022/06/01 04:54:04;;;;;;;6.35;4.43;;;;;;;;;;5047250;28;20029;-56
2022/06/01 04:56:31;;;;;;;5.32;3.60;;;;;;;;;;5039170;28;20040;-56
2022/06/01 04:58:57;;;;;;;3.97;3.45;;;;;;;;;;5044960;28;20025;-56
2022/06/01 05:01:23;;;;;;;5.10;3.85;;;;;;;;;;5045240;28;20067;-56
2022/06/01 05:03:49;;;;;;;6.75;3.80;;;;;;;;;;5037445;28;20401;-55
2022/06/01 05:06:15;;;;;;;7.90;3.97;;;;;;;;;;5034742;28;20037;-54
2022/06/01 05:08:41;;;;;;;7.10;3.40;;;;;;;;;;5031073;28;20125;-56
2022/06/01 05:11:07;;;;;;;6.35;3.65;;;;;;;;;;5047440;28;20399;-56
2022/06/01 05:13:33;;;;;;;4.32;3.90;;;;;;;;;;5042197;28;20029;-56
2022/06/01 05:16:01;;;;;;;7.07;3.90;;;;;;;;;;5050873;28;20040;-56
2022/06/01 05:18:27;;;;;;;6.68;4.05;;;;;;;;;;5058440;28;20032;-56
2022/06/01 05:20:54;;;;;;;6.18;4.32;;;;;;;;;;5042045;28;20013;-56
2022/06/01 05:23:20;;;;;;;4.35;3.50;;;;;;;;;;5050484;28;20029;-56
2022/06/01 05:25:47;;;;;;;4.50;3.53;;;;;;;;;;5034306;28;20035;-56
2022/06/01 05:28:16;;;;;;;5.32;3.67;;;;;;;;;;5042808;28;20021;-55
2022/06/01 05:30:42;;;;;;;5.07;3.65;;;;;;;;;;5047925;28;20078;-55
2022/06/01 05:33:08;;;;;;;4.32;3.85;;;;;;;;;;5035628;28;20032;-56
2022/06/01 05:35:34;;;;;;;5.25;3.83;;;;;;;;;;5038852;28;20040;-54
2022/06/01 05:38:01;;;;;;;4.65;3.42;;;;;;;;;;5044271;28;20029;-56
2022/06/01 05:40:30;;;;;;;4.45;3.25;;;;;;;;;;5040267;28;20032;-56
2022/06/01 05:42:56;;;;;;;4.00;3.08;;;;;;;;;;5050179;28;20400;-56
2022/06/01 05:45:22;;;;;;;4.65;3.40;;;;;;;;;;5045678;28;20052;-56
2022/06/01 05:47:48;;;;;;;3.85;3.28;;;;;;;;;;5046570;28;20030;-54
2022/06/01 05:50:14;;;;;;;2.70;2.40;;;;;;;;;;5043475;28;20040;-55
2022/06/01 05:52:40;;;;;;;3.53;3.08;;;;;;;;;;5035358;28;20025;-55
2022/06/01 05:55:07;;;;;;;3.10;2.60;;;;;;;;;;5038802;28;20033;-55
2022/06/01 05:57:33;;;;;;;3.85;2.70;;;;;;;;;;5035844;28;20021;-56
2022/06/01 05:59:59;;;;;;;3.55;2.63;;;;;;;;;;5044253;28;20030;-56
2022/06/01 06:02:25;;;;;;;3.17;2.30;;;;;;;;;;5035997;28;20030;-56
2022/06/01 06:04:51;;;;;;;4.35;2.60;;;;;;;;;;5051259;28;20029;-56
2022/06/01 06:07:17;;;;;;;4.68;2.80;;;;;;;;;;5041597;28;20049;-56
2022/06/01 06:09:43;;;;;;;3.25;1.95;;;;;;;;;;5043534;28;20378;-54
2022/06/01 06:12:09;;;;;;;3.70;1.92;;;;;;;;;;5042504;28;23256;-56
2022/06/01 06:14:35;;;;;;;6.00;2.50;;;;;;;;;;5046760;28;20051;-54
2022/06/01 06:17:01;;;;;;;3.30;2.30;;;;;;;;;;5047482;28;20071;-56
2022/06/01 06:19:27;;;;;;;2.55;1.95;;;;;;;;;;5051192;28;20033;-57
2022/06/01 06:21:53;;;;;;;1.58;1.48;;;;;;;;;;5046060;28;20447;-56
2022/06/01 06:24:20;;;;;;;2.78;1.80;;;;;;;;;;5052570;28;20064;-55
2022/06/01 06:26:47;;;;;;;3.00;1.90;;;;;;;;;;5048684;28;20025;-55
2022/06/01 06:29:13;;;;;;;4.40;1.88;;;;;;;;;;5050116;28;20083;-56
2022/06/01 06:31:40;;;;;;;1.98;1.27;;;;;;;;;;5036717;28;20756;-55
2022/06/01 06:34:06;;;;;;;3.38;2.13;;;;;;;;;;5033180;28;20729;-56
2022/06/01 06:36:32;;;;;;;3.20;1.67;;;;;;;;;;5045213;28;20100;-56
2022/06/01 06:38:58;;;;;;;2.13;1.58;;;;;;;;;;5043225;28;20452;-56
2022/06/01 06:41:24;;;;;;;2.42;1.60;;;;;;;;;;5037471;28;20118;-55
2022/06/01 06:43:51;;;;;;;2.80;1.98;;;;;;;;;;5039895;28;20021;-56
2022/06/01 06:46:18;;;;;;;3.33;1.50;;;;;;;;;;5040491;28;20022;-56
2022/06/01 06:48:45;;;;;;;3.22;1.63;;;;;;;;;;5042643;28;20499;-56
2022/06/01 06:51:12;;;;;;;2.60;1.48;;;;;;;;;;5039498;28;20025;-57
2022/06/01 06:53:38;;;;;;;3.20;1.80;;;;;;;;;;5045583;28;20036;-56
2022/06/01 06:56:04;;;;;;;3.55;2.33;;;;;;;;;;5051747;28;20025;-57
2022/06/01 06:58:30;;;;;;;2.15;1.50;;;;;;;;;;5045235;28;20040;-56
2022/06/01 07:00:56;;;;;;;2.85;1.75;;;;;;;;;;5036384;28;20033;-57
2022/06/01 07:03:22;;;;;;;5.22;1.92;;;;;;;;;;5042050;28;20481;-55
2022/06/01 07:08:33;;;;;;;2.22;1.60;;;;;;;;;;5047135;28;20083;-57
2022/06/01 07:10:59;;;;;;;2.38;1.75;;;;;;;;;;5038285;28;20030;-56
2022/06/01 07:13:27;;;;;;;3.22;1.65;;;;;;;;;;5040475;28;20533;-56
2022/06/01 07:16:00;;;;;;;3.67;1.98;;;;;;;;;;5050807;28;20535;-57
2022/06/01 07:18:26;;;;;;;2.65;1.80;;;;;;;;;;5049119;28;20033;-56
2022/06/01 07:20:52;;;;;;;3.20;2.30;;;;;;;;;;5040941;28;20107;-56
2022/06/01 07:23:18;;;;;;;4.03;2.25;;;;;;;;;;5049617;28;20025;-57
2022/06/01 07:25:44;;;;;;;5.38;2.47;;;;;;;;;;5038847;28;20511;-57
2022/06/01 07:28:10;;;;;;;3.85;2.05;;;;;;;;;;5030232;28;20489;-56
2022/06/01 07:30:36;;;;;;;2.63;1.85;;;;;;;;;;5042009;28;20539;-57
2022/06/01 07:33:02;;;;;;;5.32;2.08;;;;;;;;;;5038135;28;20094;-57
2022/06/01 07:35:28;;;;;;;3.92;2.22;;;;;;;;;;5042453;28;20139;-57
2022/06/01 07:43:23;;;;;;;3.33;1.70;;;;;;;;;;5036205;28;20047;-54
2022/06/01 07:45:50;;;;;;;6.18;2.00;;;;;;;;;;5047008;28;20060;-56
2022/06/01 07:48:17;;;;;;;3.95;2.38;;;;;;;;;;5039788;28;20116;-56
2022/06/01 07:50:43;;;;;;;3.63;2.35;;;;;;;;;;5041860;28;20021;-57
2022/06/01 07:53:10;;;;;;;2.63;1.73;;;;;;;;;;5044517;28;20033;-56
2022/06/01 07:55:36;;;;;;;3.40;1.60;;;;;;;;;;5044944;28;20108;-57
2022/06/01 07:58:03;;;;;;;3.63;1.65;;;;;;;;;;5035848;28;21749;-57
2022/06/01 08:00:29;;;;;;;2.90;2.00;;;;;;;;;;5037844;28;20555;-56
2022/06/01 08:02:55;;;;;;;3.25;1.65;;;;;;;;;;5035652;28;20043;-57
2022/06/01 08:05:22;;;;;;;3.58;1.75;;;;;;;;;;5044762;28;20110;-55
2022/06/01 08:07:48;;;;;;;2.83;2.00;;;;;;;;;;5032206;28;20057;-57
2022/06/01 08:10:15;;;;;;;2.03;1.40;;;;;;;;;;5045401;28;20035;-57
2022/06/01 08:15:26;;;;;;;4.63;1.30;;;;;;;;;;5036937;28;20029;-56
2022/06/01 08:17:55;;;;;;;2.67;1.52;;;;;;;;;;5041263;28;20066;-57
2022/06/01 08:20:21;;;;;;;3.42;1.63;;;;;;;;;;5044890;28;20043;-56
2022/06/01 08:22:48;;;;;;;2.47;1.70;;;;;;;;;;5041485;28;20033;-56
2022/06/01 08:25:16;;;;;;;1.88;1.05;;;;;;;;;;5037472;28;20033;-57
2022/06/01 08:27:42;;;;;;;3.35;1.85;;;;;;;;;;5034059;28;20025;-56
2022/06/01 08:30:08;;;;;;;2.67;1.30;;;;;;;;;;5060588;28;20025;-55
2022/06/01 08:32:34;;;;;;;2.22;1.50;;;;;;;;;;5031988;28;20053;-57
2022/06/01 08:35:00;;;;;;;3.38;1.38;;;;;;;;;;5032867;28;20028;-57
2022/06/01 08:37:26;;;;;;;2.20;1.30;;;;;;;;;;5048854;28;20036;-57
2022/06/01 08:39:52;;;;;;;5.18;1.83;;;;;;;;;;5039199;28;20029;-57
2022/06/01 08:42:20;;;;;;;3.08;1.35;;;;;;;;;;5040511;28;20048;-57
2022/06/01 08:44:47;;;;;;;2.10;1.35;;;;;;;;;;5044029;28;20397;-57
2022/06/01 08:47:33;;;;;;;3.05;1.55;;;;;;;;;;5040692;28;20025;-70
2022/06/01 08:50:01;;;;;;;2.20;1.50;;;;;;;;;;5042338;28;20492;-57
2022/06/01 08:52:28;;;;;;;2.30;1.67;;;;;;;;;;5042863;28;20406;-57
2022/06/01 08:54:54;;;;;;;2.08;1.30;;;;;;;;;;5038664;28;20520;-57
2022/06/01 08:57:24;;;;;;;2.88;1.50;;;;;;;;;;5019621;28;20087;-56
2022/06/01 09:00:06;;;;;;;3.35;1.25;;;;;;;;;;5040239;28;20030;-57
2022/06/01 09:02:43;;;;;;;2.60;1.35;;;;;;;;;;5045390;28;20048;-55
2022/06/01 09:05:35;;;;;;;2.38;1.50;;;;;;;;;;5037773;28;20528;-57
2022/06/01 09:08:21;;;;;;;2.92;1.20;;;;;;;;;;5001333;28;20064;-55
2022/06/01 09:10:53;;;;;;;3.42;1.70;;;;;;;;;;5024688;28;20030;-57
2022/06/01 09:13:23;;;;;;;1.42;1.20;;;;;;;;;;5043952;28;20479;-55
2022/06/01 09:15:58;;;;;;;1.88;1.33;;;;;;;;;;5046846;28;20037;-57
2022/06/01 09:18:28;;;;;;;1.73;1.38;;;;;;;;;;5030607;28;20076;-57
2022/06/01 09:23:40;;;;;;;3.60;1.42;;;;;;;;;;5043085;28;20043;-57
2022/06/01 09:26:06;;;;;;;2.05;1.20;;;;;;;;;;5035939;28;20752;-57
2022/06/01 09:28:37;;;;;;;2.47;1.35;;;;;;;;;;5030780;28;20040;-57
2022/06/01 09:31:08;;;;;;;2.08;1.42;;;;;;;;;;5050437;28;20028;-57
2022/06/01 09:33:36;;;;;;;2.47;1.20;;;;;;;;;;5041471;28;20094;-56
2022/06/01 09:36:08;;;;;;;2.40;1.50;;;;;;;;;;5040023;28;20033;-53
2022/06/01 09:38:51;;;;;;;2.70;0.82;;;;;;;;;;5030094;28;20025;-55
2022/06/01 09:41:21;;;;;;;3.67;1.23;;;;;;;;;;5041620;28;20638;-56
2022/06/01 09:43:59;;;;;;;1.98;1.05;;;;;;;;;;5031123;28;20241;-57
2022/06/01 09:46:34;;;;;;;3.35;1.13;;;;;;;;;;5032411;28;20536;-57
2022/06/01 09:49:02;;;;;;;3.17;1.65;;;;;;;;;;5042436;28;20025;-57
2022/06/01 09:51:28;;;;;;;2.17;1.10;;;;;;;;;;5045463;28;20028;-56
2022/06/01 09:54:09;;;;;;;1.55;1.00;;;;;;;;;;5029492;28;20031;-56
2022/06/01 09:56:40;;;;;;;1.55;1.10;;;;;;;;;;5038345;28;20099;-56
2022/06/01 10:07:26;;;;;;;2.55;1.90;;;;;;;;;;5022815;28;20091;-55
2022/06/01 10:09:54;;;;;;;5.63;1.45;;;;;;;;;;5041687;28;20499;-55
2022/06/01 10:12:25;;;;;;;2.15;1.60;;;;;;;;;;5028672;28;20369;-55
2022/06/01 10:14:53;;;;;;;3.38;1.73;;;;;;;;;;5032422;28;20041;-55
2022/06/01 10:17:28;;;;;;;3.90;1.80;;;;;;;;;;5029271;28;20548;-52
2022/06/01 10:20:13;;;;;;;3.35;1.60;;;;;;;;;;5043556;28;20057;-53
2022/06/01 10:22:44;;;;;;;4.35;1.77;;;;;;;;;;5044170;28;20056;-56
2022/06/01 10:25:16;;;;;;;2.30;1.30;;;;;;;;;;5043285;28;20037;-56
2022/06/01 10:27:49;;;;;;;5.22;1.67;;;;;;;;;;5019721;28;20036;-55
2022/06/01 10:30:42;;;;;;;3.55;1.83;;;;;;;;;;5029967;28;20116;-54
2022/06/01 10:33:15;;;;;;;2.42;1.40;;;;;;;;;;5038701;28;20052;-56
2022/06/01 10:35:58;;;;;;;3.85;1.48;;;;;;;;;;5045756;28;20167;-55
2022/06/01 10:38:29;;;;;;;6.07;1.75;;;;;;;;;;5036688;28;20040;-56
2022/06/01 10:41:18;;;;;;;3.70;1.30;;;;;;;;;;5042386;28;20095;-55
2022/06/01 10:44:07;;;;;;;2.85;1.63;;;;;;;;;;5030277;28;20044;-52
2022/06/01 10:46:51;;;;;;;1.92;1.38;;;;;;;;;;4990522;28;20053;-55
2022/06/01 10:49:17;;;;;;;;;;;;;;;;;;5040443;28;20112;-56
2022/06/01 10:51:43;;;;;;;1.83;1.45;;;;;;;;;;5038680;28;19960;-56
2022/06/01 10:54:29;;;;;;;3.38;1.60;;;;;;;;;;5034748;28;20029;-56
2022/06/01 10:56:55;;;;;;;1.30;1.05;;;;;;;;;;5047636;28;20036;-55
2022/06/01 10:59:22;;;;;;;2.00;1.30;;;;;;;;;;5030592;28;20110;-54
2022/06/01 11:02:16;;;;;;;2.88;1.58;;;;;;;;;;5049838;28;20047;-55
2022/06/01 11:05:01;;;;;;;1.70;1.48;;;;;;;;;;5041588;28;20095;-55
2022/06/01 11:07:38;;;;;;;3.97;1.35;;;;;;;;;;5034150;28;20049;-55
2022/06/01 11:10:20;;;;;;;3.35;1.60;;;;;;;;;;5048825;28;20675;-55
2022/06/01 11:12:53;;;;;;;3.25;1.17;;;;;;;;;;5053576;28;20029;-55
2022/06/01 11:15:25;;;;;;;1.67;1.30;;;;;;;;;;5030464;28;20057;-55
2022/06/01 11:18:02;;;;;;;1.75;1.38;;;;;;;;;;5042634;28;20025;-55
2022/06/01 11:20:41;;;;;;;2.35;1.20;;;;;;;;;;5041366;28;20392;-55
2022/06/01 11:23:06;;;;;;;3.63;1.48;;;;;;;;;;5041503;28;20048;-56
2022/06/01 11:25:47;;;;;;;1.33;1.17;;;;;;;;;;5033202;28;20486;-55
2022/06/01 11:28:49;;;;;;;2.83;1.50;;;;;;;;;;5040191;28;20044;-55
2022/06/01 11:31:22;;;;;;;2.95;0.93;;;;;;;;;;4958975;28;20045;-56
2022/06/01 11:33:48;;;;;;;;;;;;;;;;;;5030438;28;20748;-55
2022/06/01 11:36:40;;;;;;;2.00;1.55;;;;;;;;;;5048094;28;19995;-54
2022/06/01 11:39:12;;;;;;;2.30;1.17;;;;;;;;;;5038250;28;20175;-55
2022/06/01 11:41:40;;;;;;;2.92;1.35;;;;;;;;;;5032799;28;20124;-55
2022/06/01 11:44:09;;;;;;;2.97;1.27;;;;;;;;;;5046181;28;20480;-54
2022/06/01 11:46:53;;;;;;;1.98;1.10;;;;;;;;;;5044390;28;20029;-55
2022/06/01 11:49:31;;;;;;;5.50;1.13;;;;;;;;;;5040291;28;20041;-55
2022/06/01 11:52:11;;;;;;;1.33;0.90;;;;;;;;;;5039068;28;20427;-54
2022/06/01 11:54:38;;;;;;;1.85;0.98;;;;;;;;;;5040752;28;20028;-55
2022/06/01 11:57:24;;;;;;;1.45;0.80;;;;;;;;;;5043520;28;20053;-55
2022/06/01 12:00:08;;;;;;;1.85;1.02;;;;;;;;;;5035478;28;20022;-56
2022/06/01 12:02:41;;;;;;;3.60;1.20;;;;;;;;;;5032805;28;20030;-56
2022/06/01 12:05:20;;;;;;;2.13;0.90;;;;;;;;;;5039298;28;20029;-55
2022/06/01 12:07:48;;;;;;;2.20;1.02;;;;;;;;;;5050476;28;20159;-56
2022/06/01 12:10:22;;;;;;;1.67;0.85;;;;;;;;;;5040715;28;20033;-55
2022/06/01 12:13:03;;;;;;;1.10;0.80;;;;;;;;;;5036026;28;20338;-55
2022/06/01 12:15:55;;;;;;;1.48;0.88;;;;;;;;;;5039922;28;20036;-54
2022/06/01 12:18:24;;;;;;;1.95;0.80;;;;;;;;;;4999556;28;20090;-54
2022/06/01 12:20:52;;;;;;;1.42;0.93;;;;;;;;;;5035128;28;20091;-54
2022/06/01 12:28:53;;;;;;;1.08;0.77;;;;;;;;;;5046160;28;20501;-55
2022/06/01 12:31:21;;;;;;;3.47;0.95;;;;;;;;;;5037648;28;20954;-56
2022/06/01 12:34:06;;;;;;;2.65;1.00;;;;;;;;;;5046209;28;20059;-54
2022/06/01 12:36:38;;;;;;;1.92;1.10;;;;;;;;;;5051394;28;20073;-55
2022/06/01 12:39:08;;;;;;;2.25;0.93;;;;;;;;;;5048462;28;20665;-56
2022/06/01 12:41:36;;;;;;;2.20;1.20;;;;;;;;;;5045686;28;20029;-55
2022/06/01 12:44:05;;;;;;;1.17;0.95;;;;;;;;;;5038689;28;20017;-56
2022/06/01 12:46:38;;;;;;;3.65;1.13;;;;;;;;;;5044274;28;20029;-55
2022/06/01 12:49:23;;;;;;;2.72;1.20;;;;;;;;;;5045356;28;20450;-54
2022/06/01 12:51:51;;;;;;;1.70;1.10;;;;;;;;;;5039148;28;20036;-55
2022/06/01 12:54:27;;;;;;;3.28;1.23;;;;;;;;;;5044247;28;20449;-55
2022/06/01 12:56:53;;;;;;;1.77;1.30;;;;;;;;;;5044779;28;20026;-55
2022/06/01 12:59:19;;;;;;;3.25;0.98;;;;;;;;;;5034782;28;20299;-55
2022/06/01 13:01:50;;;;;;;2.25;1.20;;;;;;;;;;5035664;28;20249;-54
2022/06/01 13:04:22;;;;;;;1.90;1.10;;;;;;;;;;5044537;28;20024;-55
2022/06/01 13:06:48;;;;;;;6.97;1.33;;;;;;;;;;5034826;28;20029;-55
2022/06/01 13:09:18;;;;;;;2.30;0.70;;;;;;;;;;5043384;28;20397;-54
2022/06/01 13:11:45;;;;;;;1.65;0.80;;;;;;;;;;5048846;28;20106;-55
2022/06/01 13:14:11;;;;;;;3.30;1.08;;;;;;;;;;5041013;28;20362;-56
2022/06/01 13:16:42;;;;;;;3.30;0.60;;;;;;;;;;5047939;28;20045;-57
2022/06/01 13:19:34;;;;;;;5.32;1.10;;;;;;;;;;5042265;28;20484;-57
2022/06/01 13:22:22;;;;;;;4.45;1.10;;;;;;;;;;5038604;28;20701;-56
2022/06/01 13:24:50;;;;;;;0.90;0.68;;;;;;;;;;5038151;28;20116;-56
2022/06/01 13:27:16;;;;;;;1.00;0.80;;;;;;;;;;5044714;28;20388;-56
2022/06/01 13:29:44;;;;;;;1.58;1.08;;;;;;;;;;5034306;28;20532;-57
2022/06/01 13:32:11;;;;;;;3.40;0.85;;;;;;;;;;5041673;28;20489;-55
2022/06/01 13:34:51;;;;;;;1.80;0.98;;;;;;;;;;5033785;28;20476;-57
2022/06/01 13:37:19;;;;;;;2.05;0.80;;;;;;;;;;5036347;28;20535;-56
2022/06/01 13:39:53;;;;;;;1.95;0.70;;;;;;;;;;5036145;28;20465;-57
2022/06/01 13:42:24;;;;;;;3.65;0.80;;;;;;;;;;5033648;28;20039;-57
2022/06/01 13:44:51;;;;;;;1.17;0.77;;;;;;;;;;5034063;28;20061;-57
2022/06/01 13:47:31;;;;;;;2.08;0.98;;;;;;;;;;5050288;28;20407;-57
2022/06/01 13:50:03;;;;;;;1.00;0.77;;;;;;;;;;5034019;28;20389;-57
2022/06/01 13:52:30;;;;;;;2.88;0.70;;;;;;;;;;5042971;28;20108;-57
2022/06/01 13:55:08;;;;;;;1.77;0.95;;;;;;;;;;5042512;28;20074;-57
2022/06/01 13:57:44;;;;;;;0.52;0.50;;;;;;;;;;5030984;28;20507;-56
2022/06/01 14:00:18;;;;;;;1.92;0.77;;;;;;;;;;5042721;28;20055;-57
2022/06/01 14:02:52;;;;;;;10.00;0.80;;;;;;;;;;5043892;28;20092;-57
2022/06/01 14:05:41;;;;;;;1.38;0.60;;;;;;;;;;5036828;28;20095;-57
2022/06/01 14:08:09;;;;;;;1.30;0.45;;;;;;;;;;5035176;28;20053;-57
2022/06/01 14:10:37;;;;;;;1.52;0.65;;;;;;;;;;5045834;28;20029;-56
2022/06/01 14:13:03;;;;;;;1.95;0.55;;;;;;;;;;5038479;28;20025;-57
2022/06/01 14:15:31;;;;;;;1.38;0.50;;;;;;;;;;5040945;28;20074;-57
2022/06/01 14:17:57;;;;;;;1.63;0.40;;;;;;;;;;5050218;28;20381;-57
2022/06/01 14:20:23;;;;;;;1.02;0.50;;;;;;;;;;5036943;28;20029;-50
2022/06/01 14:22:49;;;;;;;0.50;0.20;;;;;;;;;;5035882;28;20456;-50
2022/06/01 14:30:44;;;;;;;4.32;0.40;;;;;;;;;;5042327;28;20047;-49
2022/06/01 14:33:11;;;;;;;2.97;0.40;;;;;;;;;;5044407;28;20029;-53
2022/06/01 14:35:38;;;;;;;0.47;0.30;;;;;;;;;;5048706;28;20104;-47
2022/06/01 14:38:04;;;;;;;0.73;0.32;;;;;;;;;;5037998;28;20488;-51
2022/06/01 14:40:29;;;;;;;0.65;0.30;;;;;;;;;;5048829;28;20033;-50
2022/06/01 14:42:57;;;;;;;1.40;0.32;;;;;;;;;;5040262;28;20037;-49
2022/06/01 14:45:23;;;;;;;0.40;0.20;;;;;;;;;;5036549;28;20025;-49
2022/06/01 14:47:49;;;;;;;0.75;0.20;;;;;;;;;;5034625;28;20037;-52
2022/06/01 14:50:15;;;;;;;1.40;0.38;;;;;;;;;;5039927;28;20030;-48
2022/06/01 14:52:41;;;;;;;0.80;0.50;;;;;;;;;;5046999;28;20029;-51
2022/06/01 14:55:08;;;;;;;1.40;0.40;;;;;;;;;;5044461;28;20022;-49
2022/06/01 14:57:34;;;;;;;1.10;0.30;;;;;;;;;;5039379;28;20040;-50
2022/06/01 15:00:01;;;;;;;2.03;0.35;;;;;;;;;;5032921;28;20021;-51
2022/06/01 15:02:27;;;;;;;0.88;0.38;;;;;;;;;;5047082;28;20029;-52
2022/06/01 15:04:56;;;;;;;1.20;0.40;;;;;;;;;;5048650;28;20041;-51
2022/06/01 15:07:23;;;;;;;0.85;0.38;;;;;;;;;;5048154;28;20055;-51
2022/06/01 15:09:49;;;;;;;1.13;0.40;;;;;;;;;;5033876;28;20507;-51
2022/06/01 15:12:15;;;;;;;0.47;0.30;;;;;;;;;;5038767;28;20024;-50
2022/06/01 15:14:41;;;;;;;0.30;0.30;;;;;;;;;;5042911;28;20438;-52
2022/06/01 15:17:09;;;;;;;0.32;0.28;;;;;;;;;;5048509;28;20025;-48
2022/06/01 15:19:36;;;;;;;0.60;0.40;;;;;;;;;;5032733;28;20031;-54
2022/06/01 15:22:03;;;;;;;1.35;0.38;;;;;;;;;;5038989;28;20029;-54
2022/06/01 15:24:30;;;;;;;1.30;0.40;;;;;;;;;;5032081;28;20038;-53
2022/06/01 15:26:56;;;;;;;0.68;0.40;;;;;;;;;;5031155;28;20082;-52
2022/06/01 15:40:22;;;;;;;1.50;0.50;;;;;;;;;;5038767;28;20036;-52
2022/06/01 15:42:48;;;;;;;0.82;0.45;;;;;;;;;;5050481;28;20465;-51
2022/06/01 15:45:15;;;;;;;0.65;0.43;;;;;;;;;;5043418;28;20047;-51
2022/06/01 15:47:41;;;;;;;5.40;2.00;;;;;;;;;;5050384;28;20025;-52
2022/06/01 15:50:08;;;;;;;7.07;2.03;;;;;;;;;;5041213;28;20063;-53